Time;durP1;ratioP1;P1;durP2;ratioP2;P2;SDS_P1;SDS_P2;PMS_P1;PMS_P2;Temp;Humidity;BMP_temperature;BMP_pressure;BME280_temperature;BME280_humidity;BME280_pressure;Samples;Min_cycle;Max_cycle;Signal;HPM_P1;HPM_P2
2023/02/18 00:09:40;;;;;;;7.80;3.60;;;;;;;9.67;70.81;98980.91;676098;1275;137923;-93
2023/02/18 00:25:14;;;;;;;11.90;3.30;;;;;;;9.61;70.23;98988.92;675451;1276;138636;-89
2023/02/18 00:40:31;;;;;;;12.70;2.80;;;;;;;9.58;68.58;98986.27;673497;1285;138902;-89
2023/02/18 00:55:46;;;;;;;12.70;3.40;;;;;;;9.53;67.00;98983.96;668679;1276;1434238;-88
2023/02/18 01:10:54;;;;;;;11.30;3.60;;;;;;;9.46;66.52;98990.42;669908;1277;138814;-91
2023/02/18 01:25:58;;;;;;;11.90;3.50;;;;;;;9.31;65.81;99007.65;669302;1277;139282;-93
2023/02/18 01:41:02;;;;;;;9.60;2.40;;;;;;;9.23;66.03;99015.17;667371;1289;137964;-88
2023/02/18 01:56:09;;;;;;;7.60;2.50;;;;;;;9.20;66.07;99026.29;669159;1274;138672;-90
2023/02/18 02:11:19;;;;;;;9.50;2.40;;;;;;;9.16;66.60;99031.20;668794;1277;138526;-91
2023/02/18 02:26:31;;;;;;;15.50;2.60;;;;;;;9.05;66.48;99037.40;669104;1276;139130;-93
2023/02/18 02:41:53;;;;;;;9.90;2.30;;;;;;;9.05;65.68;99046.77;668854;1276;138507;-93
2023/02/18 02:57:12;;;;;;;10.60;3.00;;;;;;;9.05;65.31;99053.45;669227;1276;139190;-90
2023/02/18 03:12:36;;;;;;;8.30;2.40;;;;;;;8.90;64.08;99069.59;668867;1276;138852;-90
2023/02/18 03:27:48;;;;;;;12.90;3.00;;;;;;;8.84;62.90;99077.49;669640;1274;138017;-89
2023/02/18 03:42:53;;;;;;;12.90;3.10;;;;;;;8.79;63.08;99080.21;667821;1276;139437;-90
2023/02/18 03:57:56;;;;;;;10.80;2.90;;;;;;;8.67;63.15;99088.53;665953;1277;138936;-91
2023/02/18 04:13:00;;;;;;;14.50;2.70;;;;;;;8.66;63.47;99111.02;666925;1275;139730;-89
2023/02/18 04:28:04;;;;;;;10.20;2.40;;;;;;;8.55;64.03;99106.60;667300;1277;138725;-89
2023/02/18 04:43:08;;;;;;;8.10;2.00;;;;;;;8.30;64.35;99099.40;668379;1289;138312;-92
2023/02/18 04:58:11;;;;;;;11.80;2.20;;;;;;;8.31;63.81;99117.20;668668;1274;139994;-88
2023/02/18 05:13:14;;;;;;;7.10;2.40;;;;;;;8.31;63.79;99126.70;666594;1277;139840;-87
2023/02/18 05:28:18;;;;;;;6.90;2.50;;;;;;;8.21;63.76;99141.11;667733;1274;138941;-88
2023/02/18 05:43:21;;;;;;;17.30;4.30;;;;;;;8.28;62.29;99148.61;667997;1277;138709;-89
2023/02/18 05:58:25;;;;;;;18.90;4.40;;;;;;;8.19;62.36;99185.02;667487;1277;138753;-91
2023/02/18 06:13:28;;;;;;;15.50;2.80;;;;;;;8.30;62.20;99206.45;667243;1274;139199;-91
2023/02/18 06:28:32;;;;;;;11.20;3.20;;;;;;;8.23;62.30;99229.74;666893;1273;139413;-91
2023/02/18 06:43:36;;;;;;;12.90;2.60;;;;;;;8.11;62.60;99251.93;667989;1277;138706;-91
2023/02/18 06:58:39;;;;;;;12.50;3.80;;;;;;;8.23;62.80;99253.75;666122;1273;138730;-91
2023/02/18 07:13:42;;;;;;;16.30;2.70;;;;;;;8.25;62.90;99263.84;667746;1274;138614;-92
2023/02/18 07:28:46;;;;;;;16.10;3.10;;;;;;;8.18;62.92;99268.15;667763;1274;138753;-91
2023/02/18 07:43:49;;;;;;;13.40;4.10;;;;;;;8.43;62.62;99285.75;668708;1275;138900;-90
2023/02/18 07:58:53;;;;;;;23.20;5.10;;;;;;;8.84;62.05;99302.77;668817;1277;138801;-91
2023/02/18 08:13:58;;;;;;;24.10;8.30;;;;;;;8.84;61.69;99314.09;668267;1277;138958;-88
2023/02/18 08:29:01;;;;;;;24.70;6.60;;;;;;;8.69;61.02;99338.52;665840;1277;138687;-89
2023/02/18 08:44:05;;;;;;;14.60;5.50;;;;;;;8.61;61.36;99344.45;664734;1276;139076;-91
2023/02/18 08:59:53;;;;;;;35.60;11.60;;;;;;;8.85;61.54;99370.94;667862;1277;139120;-92
2023/02/18 09:15:27;;;;;;;34.80;8.90;;;;;;;9.26;61.39;99374.73;666436;1276;137873;-90
2023/02/18 09:30:31;;;;;;;57.90;24.20;;;;;;;9.28;61.24;99381.91;664102;1274;139315;-88
2023/02/18 09:45:34;;;;;;;30.70;12.10;;;;;;;9.33;60.50;99400.64;667332;1277;139934;-91
2023/02/18 10:00:41;;;;;;;99.00;49.60;;;;;;;9.20;61.01;99419.32;670117;1277;139560;-91
2023/02/18 10:15:46;;;;;;;52.00;25.30;;;;;;;9.34;61.60;99423.20;671409;1277;139790;-91
2023/02/18 10:30:57;;;;;;;25.40;9.30;;;;;;;9.20;61.50;99427.27;666565;1277;138715;-89
2023/02/18 10:46:12;;;;;;;28.60;7.60;;;;;;;9.33;61.62;99424.31;666124;1276;139904;-91
2023/02/18 11:01:19;;;;;;;21.30;7.50;;;;;;;9.23;61.70;99423.61;668470;1286;138611;-89
2023/02/18 11:16:37;;;;;;;23.20;7.30;;;;;;;9.23;61.30;99415.14;669397;1277;138838;-90
2023/02/18 11:31:47;;;;;;;16.70;6.90;;;;;;;9.61;61.03;99390.42;666923;1277;138808;-91
2023/02/18 11:46:58;;;;;;;15.40;5.20;;;;;;;10.41;59.66;99367.43;664696;1277;138603;-89
2023/02/18 12:02:11;;;;;;;15.10;5.20;;;;;;;11.40;57.13;99356.55;667406;1277;138190;-91
2023/02/18 12:17:59;;;;;;;96.30;35.00;;;;;;;11.50;55.96;99339.03;664886;1277;138528;-83
2023/02/18 12:33:54;;;;;;;88.90;35.40;;;;;;;10.39;56.38;99327.38;664756;1277;138294;-87
2023/02/18 12:49:16;;;;;;;80.00;28.30;;;;;;;10.08;57.22;99319.90;663761;1280;167756;-90
2023/02/18 13:04:41;;;;;;;15.40;5.30;;;;;;;10.18;57.01;99325.05;664259;1277;138311;-90
2023/02/18 13:20:32;;;;;;;11.00;3.90;;;;;;;10.09;57.45;99320.45;665212;1274;137862;-90
2023/02/18 13:35:56;;;;;;;22.10;8.40;;;;;;;9.83;58.10;99319.26;664546;1277;138176;-89
2023/02/18 13:51:04;;;;;;;22.50;6.50;;;;;;;9.85;58.22;99314.39;666817;1277;138427;-89
2023/02/18 14:06:17;;;;;;;17.90;7.50;;;;;;;9.54;59.14;99299.77;665597;1279;138084;-90
2023/02/18 14:21:35;;;;;;;11.90;5.20;;;;;;;9.39;60.89;99284.55;669646;1275;137876;-90
2023/02/18 14:36:44;;;;;;;19.40;6.10;;;;;;;9.11;62.47;99264.19;669868;1277;138257;-90
2023/02/18 14:51:51;;;;;;;16.00;4.30;;;;;;;9.04;61.86;99257.60;667441;1276;138775;-88
2023/02/18 15:07:00;;;;;;;69.40;27.00;;;;;;;9.06;61.59;99248.00;664991;1289;140091;-91
2023/02/18 15:22:04;;;;;;;59.30;22.30;;;;;;;8.91;62.27;99246.67;665649;1279;139229;-91
2023/02/18 15:37:12;;;;;;;50.20;19.10;;;;;;;8.84;65.21;99256.05;666956;1280;139537;-90
2023/02/18 15:52:23;;;;;;;68.50;19.80;;;;;;;8.28;70.89;99267.75;665106;1279;139644;-90
2023/02/18 16:07:36;;;;;;;118.20;50.40;;;;;;;7.80;75.07;99274.65;665419;1276;140349;-91
2023/02/18 16:22:49;;;;;;;36.60;17.30;;;;;;;7.52;76.75;99293.19;663873;1283;139252;-89
2023/02/18 16:37:56;;;;;;;127.10;48.40;;;;;;;7.43;78.99;99285.71;664173;1288;139077;-89
2023/02/18 16:53:00;;;;;;;83.10;25.80;;;;;;;7.73;77.83;99308.55;669248;1273;139217;-91
2023/02/18 17:08:23;;;;;;;174.40;60.50;;;;;;;7.68;78.83;99308.51;668466;1289;139068;-88
2023/02/18 17:23:26;;;;;;;94.00;37.70;;;;;;;7.46;81.42;99329.91;665588;1274;139351;-89
2023/02/18 17:38:31;;;;;;;46.90;15.30;;;;;;;7.32;83.22;99329.80;667599;1274;138925;-91
2023/02/18 17:53:35;;;;;;;41.10;14.70;;;;;;;7.12;86.11;99340.06;665119;1277;139178;-90
2023/02/18 18:08:38;;;;;;;81.30;21.80;;;;;;;6.88;88.08;99363.41;664672;1278;139950;-89
2023/02/18 18:23:41;;;;;;;52.70;32.40;;;;;;;6.73;88.47;99388.35;666735;1276;139505;-91
2023/02/18 18:38:46;;;;;;;22.00;10.40;;;;;;;6.58;89.06;99409.53;664593;1277;140900;-87
2023/02/18 18:53:49;;;;;;;39.70;17.90;;;;;;;6.54;88.83;99429.70;665257;1276;139391;-85
2023/02/18 19:08:54;;;;;;;25.70;9.70;;;;;;;6.38;88.54;99435.02;662933;1281;139627;-90
2023/02/18 19:23:58;;;;;;;50.50;25.50;;;;;;;6.33;88.87;99442.06;666672;1277;139068;-87
2023/02/18 19:39:02;;;;;;;45.60;24.90;;;;;;;6.16;88.84;99455.60;666655;1276;139727;-87
2023/02/18 19:54:05;;;;;;;28.80;12.70;;;;;;;6.10;88.42;99459.45;667421;1273;139269;-88
2023/02/18 20:09:08;;;;;;;22.10;9.50;;;;;;;5.92;87.45;99471.15;664904;1273;139353;-89
2023/02/18 20:24:12;;;;;;;22.00;9.40;;;;;;;5.79;86.74;99479.45;667914;1290;139095;-86
2023/02/18 20:39:17;;;;;;;40.50;17.30;;;;;;;5.67;86.17;99505.02;666067;1277;138573;-87
2023/02/18 20:54:24;;;;;;;31.90;11.90;;;;;;;5.46;85.74;99524.33;665201;1274;139454;-88
2023/02/18 21:09:29;;;;;;;12.90;5.90;;;;;;;5.51;85.55;99543.19;668928;1274;139888;-86
2023/02/18 21:24:33;;;;;;;16.00;5.40;;;;;;;5.45;85.05;99570.58;671114;1276;139741;-88
2023/02/18 21:39:39;;;;;;;24.90;8.20;;;;;;;5.21;85.90;99592.54;669687;1273;139009;-87
2023/02/18 21:54:44;;;;;;;19.80;7.40;;;;;;;5.07;85.87;99608.27;666561;1277;138749;-88
2023/02/18 22:09:49;;;;;;;14.20;4.80;;;;;;;4.97;86.79;99606.17;665228;1274;139325;-87
2023/02/18 22:24:52;;;;;;;19.00;4.90;;;;;;;4.92;87.06;99608.63;667502;1273;138649;-88
2023/02/18 22:39:56;;;;;;;12.30;5.20;;;;;;;4.83;87.36;99637.29;667208;1273;139294;-87
2023/02/18 22:54:59;;;;;;;13.80;6.00;;;;;;;4.86;88.47;99634.34;667048;1288;139424;-87
2023/02/18 23:10:03;;;;;;;12.50;5.00;;;;;;;5.05;88.04;99660.83;667163;1276;137835;-87
2023/02/18 23:25:07;;;;;;;13.10;4.50;;;;;;;5.26;88.41;99660.96;666450;1277;138814;-87
2023/02/18 23:40:12;;;;;;;13.50;4.80;;;;;;;5.30;87.62;99659.17;667928;1276;139543;-86
2023/02/18 23:55:16;;;;;;;18.40;6.40;;;;;;;5.08;87.88;99659.05;666699;1274;139580;-87
